createdAt,value
2017-07-19T00:02:15.330Z,7.33
2017-07-19T00:04:43.274Z,7.10
2017-07-19T00:07:10.819Z,6.73
2017-07-19T00:09:38.381Z,6.80
2017-07-19T00:12:06.541Z,7.13
2017-07-19T00:14:34.072Z,7.00
2017-07-19T00:17:01.617Z,7.37
2017-07-19T00:19:29.159Z,6.97
2017-07-19T00:21:56.701Z,7.70
2017-07-19T00:24:24.247Z,7.20
2017-07-19T00:26:51.786Z,7.53
2017-07-19T00:29:19.313Z,8.00
2017-07-19T00:31:47.251Z,7.37
2017-07-19T00:34:14.787Z,7.57
2017-07-19T00:36:42.315Z,7.63
2017-07-19T00:39:09.835Z,7.40
2017-07-19T00:41:37.397Z,7.90
2017-07-19T00:44:04.917Z,7.87
2017-07-19T00:46:32.446Z,7.60
2017-07-19T00:48:59.992Z,7.60
2017-07-19T00:51:27.540Z,8.03
2017-07-19T00:53:55.486Z,7.33
2017-07-19T00:56:23.021Z,7.10
2017-07-19T00:58:50.578Z,7.50
2017-07-19T01:01:18.131Z,8.50
2017-07-19T01:03:45.687Z,7.77
2017-07-19T01:06:13.206Z,7.97
2017-07-19T01:08:40.760Z,7.83
2017-07-19T01:11:08.305Z,8.13
2017-07-19T01:13:36.236Z,7.47
2017-07-19T01:16:03.756Z,8.27
2017-07-19T01:18:31.285Z,8.30
2017-07-19T01:20:59.244Z,8.10
2017-07-19T01:23:26.762Z,8.37
2017-07-19T01:25:54.295Z,8.10
2017-07-19T01:28:21.823Z,8.50
2017-07-19T01:30:49.351Z,8.07
2017-07-19T01:33:16.868Z,7.87
2017-07-19T01:35:44.428Z,7.83
2017-07-19T01:38:11.955Z,7.30
2017-07-19T01:40:39.889Z,8.93
2017-07-19T01:43:07.434Z,8.50
2017-07-19T01:45:34.988Z,8.80
2017-07-19T01:48:02.533Z,8.50
2017-07-19T01:50:30.076Z,8.50
2017-07-19T01:52:57.641Z,8.87
2017-07-19T01:55:25.182Z,8.33
2017-07-19T01:57:53.152Z,8.70
2017-07-19T02:00:21.074Z,8.40
2017-07-19T02:02:48.645Z,8.30
2017-07-19T02:05:16.210Z,8.90
2017-07-19T02:07:43.737Z,8.93
2017-07-19T02:10:11.291Z,7.70
2017-07-19T02:12:38.838Z,8.47
2017-07-19T02:15:06.387Z,8.53
2017-07-19T02:17:33.915Z,8.20
2017-07-19T02:20:01.865Z,8.60
2017-07-19T02:22:29.396Z,8.40
2017-07-19T02:24:56.997Z,9.67
2017-07-19T02:27:24.588Z,9.23
2017-07-19T02:29:52.124Z,9.10
2017-07-19T02:32:20.059Z,8.00
2017-07-19T02:34:47.598Z,7.73
2017-07-19T02:37:15.129Z,7.97
2017-07-19T02:39:42.663Z,9.37
2017-07-19T02:42:10.612Z,9.03
2017-07-19T02:44:38.137Z,8.77
2017-07-19T02:47:05.668Z,8.77
2017-07-19T02:49:33.196Z,8.63
2017-07-19T02:52:00.767Z,8.53
2017-07-19T02:54:28.306Z,8.50
2017-07-19T02:56:55.824Z,7.93
2017-07-19T02:59:23.364Z,8.50
2017-07-19T03:01:50.909Z,9.03
2017-07-19T03:04:18.852Z,9.20
2017-07-19T03:06:46.371Z,8.20
2017-07-19T03:09:13.916Z,8.80
2017-07-19T03:11:41.440Z,8.90
2017-07-19T03:14:09.392Z,8.87
2017-07-19T03:16:36.934Z,9.00
2017-07-19T03:19:04.461Z,8.90
2017-07-19T03:21:32.004Z,8.30
2017-07-19T03:23:59.534Z,8.87
2017-07-19T03:26:27.071Z,8.40
2017-07-19T03:28:54.617Z,9.23
2017-07-19T03:31:22.171Z,8.67
2017-07-19T03:33:49.707Z,9.80
2017-07-19T03:36:17.254Z,9.23
2017-07-19T03:38:44.815Z,8.23
2017-07-19T03:41:12.377Z,9.17
2017-07-19T03:43:39.914Z,8.87
2017-07-19T03:46:07.437Z,8.67
2017-07-19T03:48:35.576Z,8.73
2017-07-19T03:51:03.148Z,8.33
2017-07-19T03:53:30.685Z,9.00
2017-07-19T03:55:58.211Z,9.87
2017-07-19T03:58:25.759Z,8.80
2017-07-19T04:00:53.276Z,8.00
2017-07-19T04:03:20.833Z,8.90
2017-07-19T04:05:48.390Z,8.57
2017-07-19T04:08:15.923Z,8.90
2017-07-19T04:10:43.500Z,8.30
2017-07-19T04:13:11.040Z,9.70
2017-07-19T04:15:38.582Z,9.03
2017-07-19T04:18:06.506Z,9.37
2017-07-19T04:20:34.047Z,7.80
2017-07-19T04:23:01.594Z,9.00
2017-07-19T04:25:29.136Z,8.53
2017-07-19T04:27:56.685Z,8.60
2017-07-19T04:30:24.242Z,9.43
2017-07-19T04:32:51.784Z,10.43
2017-07-19T04:35:19.308Z,7.90
2017-07-19T04:37:46.835Z,9.43
2017-07-19T04:40:14.360Z,8.93
2017-07-19T04:42:41.887Z,8.50
2017-07-19T04:45:09.403Z,8.87
2017-07-19T04:47:36.935Z,8.30
2017-07-19T04:50:04.462Z,8.70
2017-07-19T04:52:32.007Z,9.33
2017-07-19T04:54:59.535Z,9.00
2017-07-19T04:57:27.099Z,9.30
2017-07-19T04:59:54.637Z,9.27
2017-07-19T05:02:22.648Z,9.53
2017-07-19T05:04:50.202Z,9.90
2017-07-19T05:07:17.734Z,9.00
2017-07-19T05:09:45.295Z,9.03
2017-07-19T05:12:12.815Z,9.53
2017-07-19T05:14:40.371Z,8.77
2017-07-19T05:17:07.931Z,9.13
2017-07-19T05:19:35.900Z,9.50
2017-07-19T05:22:03.436Z,9.00
2017-07-19T05:24:31.018Z,9.23
2017-07-19T05:26:58.550Z,8.47
2017-07-19T05:29:26.160Z,9.50
2017-07-19T05:31:54.329Z,8.90
2017-07-19T05:34:22.287Z,8.60
2017-07-19T05:36:49.843Z,8.73
2017-07-19T05:39:17.787Z,8.93
2017-07-19T05:41:45.326Z,9.00
2017-07-19T05:44:12.864Z,8.80
2017-07-19T05:46:40.465Z,9.40
2017-07-19T05:49:07.987Z,9.00
2017-07-19T05:51:36.328Z,9.40
2017-07-19T05:54:04.255Z,8.40
2017-07-19T05:56:31.843Z,9.00
2017-07-19T05:58:59.383Z,8.90
2017-07-19T06:01:26.961Z,7.90
2017-07-19T06:03:54.553Z,9.33
2017-07-19T06:06:22.087Z,8.73
2017-07-19T06:08:49.626Z,8.60
2017-07-19T06:11:17.201Z,8.60
2017-07-19T06:13:45.150Z,7.93
2017-07-19T06:16:12.720Z,8.17
2017-07-19T06:18:40.344Z,8.50
2017-07-19T06:21:07.870Z,9.03
2017-07-19T06:23:35.520Z,8.00
2017-07-19T06:26:03.128Z,8.57
2017-07-19T06:28:30.701Z,8.47
2017-07-19T06:30:58.411Z,8.20
2017-07-19T06:33:26.060Z,8.13
2017-07-19T06:35:54.061Z,7.60
2017-07-19T06:38:21.640Z,8.30
2017-07-19T06:40:49.179Z,8.27
2017-07-19T06:43:16.753Z,8.67
2017-07-19T06:45:44.355Z,7.80
2017-07-19T06:48:12.351Z,8.47
2017-07-19T06:50:39.898Z,8.87
2017-07-19T06:53:07.515Z,7.70
2017-07-19T06:55:35.710Z,8.20
2017-07-19T06:58:03.667Z,8.60
2017-07-19T07:00:31.213Z,8.20
2017-07-19T07:02:58.758Z,8.37
2017-07-19T07:05:26.335Z,8.30
2017-07-19T07:07:54.113Z,8.57
2017-07-19T07:10:21.730Z,8.00
2017-07-19T07:12:49.272Z,7.57
2017-07-19T07:15:16.883Z,7.23
2017-07-19T07:17:44.502Z,6.80
2017-07-19T07:20:12.021Z,9.20
2017-07-19T07:22:39.636Z,7.60
2017-07-19T07:25:07.169Z,7.10
2017-07-19T07:27:34.772Z,8.53
2017-07-19T07:30:02.293Z,7.63
2017-07-19T07:32:29.820Z,8.03
2017-07-19T07:34:57.782Z,7.90
2017-07-19T07:37:25.854Z,7.83
2017-07-19T07:39:53.474Z,7.10
2017-07-19T07:42:21.038Z,7.20
2017-07-19T07:44:48.639Z,7.80
2017-07-19T07:47:16.171Z,7.37
2017-07-19T07:49:43.729Z,8.10
2017-07-19T07:52:11.271Z,7.60
2017-07-19T07:54:38.829Z,7.40
2017-07-19T07:57:07.657Z,7.10
2017-07-19T07:59:36.231Z,7.90
2017-07-19T08:02:04.147Z,7.50
2017-07-19T08:04:31.684Z,7.30
2017-07-19T08:06:59.245Z,7.90
2017-07-19T08:09:26.856Z,7.80
2017-07-19T08:11:54.426Z,7.80
2017-07-19T08:14:21.995Z,7.00
2017-07-19T08:16:49.938Z,6.80
2017-07-19T08:19:17.498Z,7.30
2017-07-19T08:21:45.093Z,6.70
2017-07-19T08:24:12.650Z,7.73
2017-07-19T08:26:40.198Z,7.70
2017-07-19T08:29:07.731Z,7.10
2017-07-19T08:31:35.272Z,7.40
2017-07-19T08:34:02.816Z,8.57
2017-07-19T08:36:30.350Z,8.47
2017-07-19T08:38:57.899Z,8.37
2017-07-19T08:41:25.836Z,8.30
2017-07-19T08:43:53.432Z,7.73
2017-07-19T08:46:20.980Z,7.00
2017-07-19T08:48:48.918Z,7.47
2017-07-19T08:51:16.458Z,7.67
2017-07-19T08:53:44.027Z,7.67
2017-07-19T08:56:11.694Z,7.70
2017-07-19T08:58:39.308Z,7.40
2017-07-19T09:01:06.877Z,7.53
2017-07-19T09:03:34.447Z,7.80
2017-07-19T09:06:02.003Z,7.20
2017-07-19T09:08:29.541Z,7.03
2017-07-19T09:10:57.099Z,7.27
2017-07-19T09:13:24.673Z,7.73
2017-07-19T09:15:52.217Z,7.90
2017-07-19T09:18:19.755Z,7.20
2017-07-19T09:20:47.302Z,7.40
2017-07-19T09:23:14.851Z,7.27
2017-07-19T09:25:42.423Z,7.33
2017-07-19T09:28:09.971Z,7.77
2017-07-19T09:30:37.596Z,7.00
2017-07-19T09:33:05.773Z,7.60
2017-07-19T09:35:33.329Z,7.13
2017-07-19T09:38:00.942Z,6.73
2017-07-19T09:40:28.939Z,6.67
2017-07-19T09:42:56.520Z,6.20
2017-07-19T09:45:24.041Z,6.83
2017-07-19T09:47:51.595Z,7.33
2017-07-19T09:50:19.174Z,6.10
2017-07-19T09:52:46.714Z,6.63
2017-07-19T09:55:14.292Z,6.30
2017-07-19T09:57:41.877Z,6.40
2017-07-19T10:00:09.486Z,6.63
2017-07-19T10:02:37.189Z,6.97
2017-07-19T10:05:04.845Z,6.40
2017-07-19T10:07:32.999Z,6.10
2017-07-19T10:10:00.692Z,6.90
2017-07-19T10:12:28.224Z,6.47
2017-07-19T10:14:57.720Z,5.80
2017-07-19T10:17:25.304Z,6.70
2017-07-19T10:19:52.957Z,6.00
2017-07-19T10:22:20.513Z,6.20
2017-07-19T10:24:48.119Z,6.60
2017-07-19T10:27:16.103Z,6.30
2017-07-19T10:29:43.673Z,6.30
2017-07-19T10:32:11.344Z,6.83
2017-07-19T10:34:38.883Z,7.17
2017-07-19T10:37:06.427Z,7.20
2017-07-19T10:39:33.972Z,6.60
2017-07-19T10:42:01.511Z,7.33
2017-07-19T10:44:29.115Z,7.10
2017-07-19T10:46:56.660Z,6.67
2017-07-19T10:49:24.628Z,7.07
2017-07-19T10:51:52.579Z,7.17
2017-07-19T10:54:20.171Z,7.57
2017-07-19T10:56:47.753Z,7.27
2017-07-19T10:59:15.394Z,6.60
2017-07-19T11:01:42.965Z,6.67
2017-07-19T11:04:10.546Z,7.73
2017-07-19T11:06:38.095Z,7.00
2017-07-19T11:09:05.670Z,7.30
2017-07-19T11:11:33.234Z,6.73
2017-07-19T11:14:00.905Z,6.70
2017-07-19T11:16:28.563Z,7.50
2017-07-19T11:18:56.129Z,7.37
2017-07-19T11:21:23.677Z,7.63
2017-07-19T11:23:51.235Z,7.37
2017-07-19T11:26:18.767Z,7.27
2017-07-19T11:28:46.294Z,8.07
2017-07-19T11:31:14.036Z,7.60
2017-07-19T11:33:41.568Z,7.30
2017-07-19T11:36:09.136Z,6.17
2017-07-19T11:38:37.590Z,7.03
2017-07-19T11:41:05.560Z,7.57
2017-07-19T11:43:33.118Z,7.40
2017-07-19T11:46:01.641Z,7.83
2017-07-19T11:48:29.173Z,7.73
2017-07-19T11:50:56.735Z,6.93
2017-07-19T11:53:24.273Z,6.60
2017-07-19T11:55:51.801Z,6.87
2017-07-19T11:58:19.360Z,6.77
2017-07-19T12:03:13.893Z,5.87
2017-07-19T12:05:41.433Z,7.40
2017-07-19T12:08:08.986Z,6.60
2017-07-19T12:10:36.688Z,7.20
2017-07-19T12:13:04.345Z,7.00
2017-07-19T12:15:31.962Z,6.63
2017-07-19T12:17:59.551Z,6.40
2017-07-19T12:20:27.135Z,6.20
2017-07-19T12:22:54.666Z,6.70
2017-07-19T12:25:22.239Z,7.70
2017-07-19T12:27:49.788Z,7.10
2017-07-19T12:30:17.367Z,6.70
2017-07-19T12:32:45.003Z,7.07
2017-07-19T12:35:12.549Z,7.10
2017-07-19T12:37:40.096Z,7.30
2017-07-19T12:40:07.652Z,7.60
2017-07-19T12:42:35.875Z,6.70
2017-07-19T12:45:03.469Z,9.00
2017-07-19T12:47:31.437Z,9.47
2017-07-19T12:49:59.357Z,7.93
2017-07-19T12:52:26.932Z,7.20
2017-07-19T12:54:54.508Z,8.83
2017-07-19T12:57:22.111Z,7.13
2017-07-19T12:59:49.702Z,8.30
2017-07-19T13:02:17.251Z,8.60
2017-07-19T13:04:44.804Z,6.60
2017-07-19T13:07:12.338Z,8.80
2017-07-19T13:09:39.938Z,7.77
2017-07-19T13:12:07.476Z,7.60
2017-07-19T13:14:35.101Z,7.83
2017-07-19T13:17:02.640Z,7.57
2017-07-19T13:19:30.187Z,7.67
2017-07-19T13:21:57.737Z,9.30
2017-07-19T13:24:25.355Z,7.53
2017-07-19T13:26:52.904Z,7.33
2017-07-19T13:29:20.439Z,7.60
2017-07-19T13:31:48.419Z,8.10
2017-07-19T13:34:16.026Z,7.17
2017-07-19T13:36:43.637Z,7.87
2017-07-19T13:39:11.564Z,8.20
2017-07-19T13:41:39.105Z,7.63
2017-07-19T13:44:07.368Z,7.67
2017-07-19T13:46:35.865Z,7.00
2017-07-19T13:49:03.451Z,10.50
2017-07-19T13:51:31.016Z,7.43
2017-07-19T13:53:58.544Z,7.70
2017-07-19T13:56:26.083Z,7.30
2017-07-19T13:58:53.651Z,7.30
2017-07-19T14:01:21.231Z,8.93
2017-07-19T14:03:48.785Z,8.63
2017-07-19T14:06:16.339Z,9.53
2017-07-19T14:08:43.904Z,9.93
2017-07-19T14:11:11.439Z,12.27
2017-07-19T14:13:38.985Z,15.73
2017-07-19T14:16:06.657Z,11.30
2017-07-19T14:18:34.206Z,10.80
2017-07-19T14:21:01.811Z,11.57
2017-07-19T14:23:29.379Z,12.10
2017-07-19T14:25:56.937Z,15.77
2017-07-19T14:28:24.555Z,14.30
2017-07-19T14:30:52.148Z,13.60
2017-07-19T14:33:19.743Z,12.20
2017-07-19T14:35:47.518Z,13.40
2017-07-19T14:38:15.090Z,12.47
2017-07-19T14:40:42.683Z,14.60
2017-07-19T14:43:10.309Z,14.97
2017-07-19T14:45:37.962Z,14.47
2017-07-19T14:48:06.662Z,13.17
2017-07-19T14:50:35.723Z,12.50
2017-07-19T14:53:03.284Z,11.23
2017-07-19T14:55:30.882Z,10.97
2017-07-19T14:57:58.468Z,11.30
2017-07-19T15:00:26.045Z,7.80
2017-07-19T15:02:53.992Z,10.23
2017-07-19T15:05:21.546Z,9.00
2017-07-19T15:07:49.122Z,9.47
2017-07-19T15:10:17.064Z,8.07
2017-07-19T15:12:44.646Z,9.30
2017-07-19T15:15:12.200Z,11.00
2017-07-19T15:17:39.771Z,8.10
2017-07-19T15:20:07.354Z,9.23
2017-07-19T15:22:34.945Z,11.77
2017-07-19T15:25:02.574Z,9.33
2017-07-19T15:27:30.159Z,7.97
2017-07-19T15:29:57.742Z,7.73
2017-07-19T15:32:25.327Z,7.73
2017-07-19T15:34:53.327Z,8.60
2017-07-19T15:37:20.891Z,8.37
2017-07-19T15:39:48.425Z,8.80
2017-07-19T15:42:16.377Z,10.13
2017-07-19T15:44:43.905Z,9.97
2017-07-19T15:47:11.475Z,9.30
2017-07-19T15:49:39.032Z,6.97
2017-07-19T15:52:06.641Z,6.77
2017-07-19T15:54:34.240Z,7.47
2017-07-19T15:57:01.793Z,7.83
2017-07-19T15:59:29.356Z,7.17
2017-07-19T16:01:56.998Z,8.97
2017-07-19T16:04:24.544Z,10.00
2017-07-19T16:06:52.101Z,9.80
2017-07-19T16:09:19.729Z,11.30
2017-07-19T16:11:47.417Z,10.27
2017-07-19T16:14:15.324Z,10.77
2017-07-19T16:16:42.937Z,9.67
2017-07-19T16:19:11.754Z,9.47
2017-07-19T16:21:39.314Z,8.57
2017-07-19T16:24:07.011Z,9.20
2017-07-19T16:26:34.611Z,9.90
2017-07-19T16:29:02.300Z,9.30
2017-07-19T16:31:30.806Z,8.93
2017-07-19T16:33:58.400Z,9.50
2017-07-19T16:36:26.498Z,8.43
2017-07-19T16:38:54.126Z,9.57
2017-07-19T16:41:21.787Z,9.73
2017-07-19T16:43:50.501Z,7.57
2017-07-19T16:46:18.276Z,7.00
2017-07-19T16:48:45.917Z,7.90
2017-07-19T16:51:13.713Z,9.00
2017-07-19T16:53:41.412Z,8.10
2017-07-19T16:56:09.075Z,8.67
2017-07-19T16:58:36.919Z,8.20
2017-07-19T17:01:04.545Z,7.70
2017-07-19T17:03:32.189Z,7.93
2017-07-19T17:05:59.982Z,9.30
2017-07-19T17:08:27.850Z,6.80
2017-07-19T17:10:55.372Z,7.27
2017-07-19T17:13:23.007Z,6.10
2017-07-19T17:15:51.000Z,6.40
2017-07-19T17:18:18.705Z,6.63
2017-07-19T17:20:46.350Z,5.67
2017-07-19T17:23:14.041Z,6.47
2017-07-19T17:25:41.620Z,6.20
2017-07-19T17:28:09.402Z,6.33
2017-07-19T17:30:37.023Z,6.17
2017-07-19T17:33:04.711Z,7.57
2017-07-19T17:35:32.733Z,7.27
2017-07-19T17:38:00.298Z,7.80
2017-07-19T17:40:27.903Z,6.70
2017-07-19T17:42:55.618Z,7.20
2017-07-19T17:45:23.451Z,7.10
2017-07-19T17:47:51.373Z,6.80
2017-07-19T17:50:18.929Z,6.13
2017-07-19T17:52:47.556Z,7.17
2017-07-19T17:55:15.285Z,6.50
2017-07-19T17:57:42.878Z,7.73
2017-07-19T18:00:10.521Z,6.87
2017-07-19T18:02:38.084Z,7.60
2017-07-19T18:05:05.639Z,6.37
2017-07-19T18:07:33.614Z,6.77
2017-07-19T18:10:01.343Z,6.70
2017-07-19T18:12:28.933Z,7.33
2017-07-19T18:14:56.853Z,6.80
2017-07-19T18:17:24.538Z,6.00
2017-07-19T18:19:52.208Z,6.00
2017-07-19T18:22:19.811Z,7.50
2017-07-19T18:24:47.401Z,5.53
2017-07-19T18:27:14.998Z,6.00
2017-07-19T18:29:42.601Z,6.17
2017-07-19T18:32:10.147Z,7.97
2017-07-19T18:34:37.711Z,5.83
2017-07-19T18:37:05.286Z,6.90
2017-07-19T18:39:33.014Z,4.90
2017-07-19T18:42:00.536Z,5.13
2017-07-19T18:44:28.177Z,5.53
2017-07-19T18:46:55.745Z,5.53
2017-07-19T18:49:23.295Z,6.27
2017-07-19T18:51:50.847Z,6.10
2017-07-19T18:54:18.427Z,5.83
2017-07-19T18:56:45.960Z,6.00
2017-07-19T18:59:13.525Z,6.23
2017-07-19T19:01:41.047Z,5.90
2017-07-19T19:04:08.563Z,6.00
2017-07-19T19:06:38.553Z,5.87
2017-07-19T19:09:06.158Z,5.60
2017-07-19T19:11:33.763Z,5.67
2017-07-19T19:14:01.305Z,5.90
2017-07-19T19:16:28.886Z,5.63
2017-07-19T19:18:56.417Z,6.67
2017-07-19T19:21:24.014Z,6.47
2017-07-19T19:23:51.593Z,5.83
2017-07-19T19:26:19.188Z,6.07
2017-07-19T19:28:46.724Z,6.07
2017-07-19T19:31:14.746Z,5.30
2017-07-19T19:33:42.381Z,5.13
2017-07-19T19:36:09.923Z,6.20
2017-07-19T19:38:37.510Z,5.67
2017-07-19T19:41:05.091Z,4.90
2017-07-19T19:43:32.645Z,5.67
2017-07-19T19:46:00.164Z,6.20
2017-07-19T19:48:27.722Z,7.80
2017-07-19T19:50:55.276Z,6.73
2017-07-19T19:53:22.876Z,7.60
2017-07-19T19:55:50.408Z,6.00
2017-07-19T19:58:17.964Z,6.57
2017-07-19T20:00:45.499Z,6.40
2017-07-19T20:03:13.089Z,6.53
2017-07-19T20:05:40.658Z,6.97
2017-07-19T20:08:08.271Z,7.00
2017-07-19T20:10:36.207Z,6.73
2017-07-19T20:13:03.740Z,7.27
2017-07-19T20:15:31.300Z,6.93
2017-07-19T20:17:58.843Z,7.63
2017-07-19T20:20:26.408Z,7.33
2017-07-19T20:22:53.946Z,6.17
2017-07-19T20:25:21.597Z,6.10
2017-07-19T20:27:49.549Z,7.90
2017-07-19T20:30:17.103Z,7.43
2017-07-19T20:32:44.640Z,7.00
2017-07-19T20:35:12.209Z,7.97
2017-07-19T20:37:39.779Z,7.13
2017-07-19T20:40:07.564Z,7.17
2017-07-19T20:42:35.497Z,7.63
2017-07-19T20:45:03.023Z,7.73
2017-07-19T20:47:30.556Z,7.20
2017-07-19T20:49:58.098Z,6.60
2017-07-19T20:52:26.030Z,5.90
2017-07-19T20:54:53.583Z,7.50
2017-07-19T20:57:21.105Z,7.83
2017-07-19T20:59:48.682Z,7.17
2017-07-19T21:02:16.213Z,6.77
2017-07-19T21:04:43.804Z,6.43
2017-07-19T21:07:11.342Z,7.00
2017-07-19T21:09:38.903Z,7.70
2017-07-19T21:12:06.433Z,8.13
2017-07-19T21:14:34.444Z,7.60
2017-07-19T21:17:01.980Z,7.00
2017-07-19T21:19:29.523Z,6.97
2017-07-19T21:21:57.088Z,6.67
2017-07-19T21:24:24.627Z,7.20
2017-07-19T21:26:52.181Z,6.67
2017-07-19T21:29:20.116Z,6.90
2017-07-19T21:31:47.671Z,7.80
2017-07-19T21:34:15.207Z,7.30
2017-07-19T21:36:42.756Z,7.37
2017-07-19T21:39:10.285Z,7.87
2017-07-19T21:41:37.856Z,7.67
2017-07-19T21:44:05.405Z,7.23
2017-07-19T21:46:32.938Z,7.60
2017-07-19T21:49:00.483Z,7.63
2017-07-19T21:51:28.009Z,8.53
2017-07-19T21:53:55.551Z,7.80
2017-07-19T21:56:23.492Z,8.47
2017-07-19T21:58:51.039Z,8.43
2017-07-19T22:01:18.561Z,8.20
2017-07-19T22:03:46.122Z,8.80
2017-07-19T22:06:13.651Z,7.90
2017-07-19T22:08:41.200Z,7.70
2017-07-19T22:11:09.132Z,8.30
2017-07-19T22:13:36.707Z,7.37
2017-07-19T22:16:04.272Z,7.80
2017-07-19T22:18:32.220Z,7.23
2017-07-19T22:20:59.763Z,7.57
2017-07-19T22:23:27.289Z,7.60
2017-07-19T22:25:54.846Z,7.63
2017-07-19T22:28:22.393Z,7.30
2017-07-19T22:30:50.341Z,7.27
2017-07-19T22:33:17.871Z,7.70
2017-07-19T22:35:45.415Z,7.20
2017-07-19T22:38:12.946Z,7.17
2017-07-19T22:40:40.487Z,7.77
2017-07-19T22:43:08.036Z,6.73
2017-07-19T22:45:35.561Z,7.00
2017-07-19T22:48:03.109Z,8.07
2017-07-19T22:50:30.646Z,7.23
2017-07-19T22:52:58.192Z,6.90
2017-07-19T22:55:25.723Z,8.70
2017-07-19T22:57:53.684Z,8.27
2017-07-19T23:00:21.228Z,7.97
2017-07-19T23:02:48.774Z,7.87
2017-07-19T23:05:16.305Z,7.20
2017-07-19T23:07:43.873Z,8.27
2017-07-19T23:10:11.410Z,8.30
2017-07-19T23:12:38.939Z,7.90
2017-07-19T23:15:06.502Z,7.83
2017-07-19T23:17:34.034Z,7.20
2017-07-19T23:20:01.583Z,7.60
2017-07-19T23:22:29.111Z,7.57
2017-07-19T23:24:56.668Z,7.50
2017-07-19T23:27:24.204Z,7.40
2017-07-19T23:29:52.157Z,6.27
2017-07-19T23:32:20.105Z,7.03
2017-07-19T23:34:47.705Z,7.80
2017-07-19T23:37:15.623Z,6.33
2017-07-19T23:39:43.195Z,7.20
2017-07-19T23:42:10.722Z,6.60
2017-07-19T23:44:38.256Z,6.60
2017-07-19T23:47:05.787Z,7.30
2017-07-19T23:49:33.717Z,7.67
2017-07-19T23:52:01.263Z,7.00
2017-07-19T23:54:28.800Z,8.37
2017-07-19T23:56:56.354Z,8.73
2017-07-19T23:59:23.896Z,9.00
